KDHT/DHT METAR and TAF weather

Enter ICAO airport designator
Station Type Date Time Source
KDHT METAR 2020/02/24 08:53 UTC NOAA

KDHT 240853Z AUTO 34015G21KT 10SM CLR 03/01 A2989 RMK AO2 SLP105 T00330006 51003 $


Station Type Date Time Source
KDHT Decoded METAR 2020/02/24 08:53 UTC NOAA

DALHART MUNICIPAL AIRPORT, TX, United States (KDHT) 36-01N 102-33W 1217M
Feb 24, 2020 - 03:53 AM EST / 2020.02.24 0853 UTC
Wind: from the NNW (340 degrees) at 17 MPH (15 KT) gusting to 24 MPH (21 KT):0
Visibility: 10 mile(s):0
Sky conditions: clear
Temperature: 37.9 F (3.3 C)
Dew Point: 33.1 F (0.6 C)
Relative Humidity: 82%
Pressure (altimeter): 29.89 in. Hg (1012 hPa)
Pressure tendency: 0.01 inches (0.3 hPa) higher than three hours ago
ob: KDHT 240853Z AUTO 34015G21KT 10SM CLR 03/01 A2989 RMK AO2 SLP105 T00330006 51003
cycle: 9

Station Type Date Time Source
KDHT TAF 2020/02/24 09:04 UTC NOAA

TAF
AMD KDHT 240902Z 2409/2506 34015G25KT P6SM SCT045
FM241100 32017G25KT P6SM SCT120
FM242000 35013KT P6SM SKC
FM242300 01016G24KT P6SM FEW200

Example: see airport list